sensor_id;sensor_type;location;lat;lon;timestamp;pressure;altitude;pressure_sealevel;temperature;humidity
71938;BME280;59810;48.800;9.086;2022-12-08T00:01:09;97239.47;;;1.33;83.58
71938;BME280;59810;48.800;9.086;2022-12-08T00:03:35;97242.13;;;1.33;83.30
71938;BME280;59810;48.800;9.086;2022-12-08T00:06:03;97231.69;;;1.38;83.71
71938;BME280;59810;48.800;9.086;2022-12-08T00:08:47;97234.16;;;1.46;82.75
71938;BME280;59810;48.800;9.086;2022-12-08T00:11:32;97235.38;;;1.37;83.15
71938;BME280;59810;48.800;9.086;2022-12-08T00:14:00;97230.47;;;1.40;82.87
71938;BME280;59810;48.800;9.086;2022-12-08T00:16:25;97233.94;;;1.41;82.58
71938;BME280;59810;48.800;9.086;2022-12-08T00:18:51;97230.06;;;1.43;82.36
71938;BME280;59810;48.800;9.086;2022-12-08T00:21:18;97230.47;;;1.47;81.78
71938;BME280;59810;48.800;9.086;2022-12-08T00:23:43;97222.91;;;1.50;81.85
71938;BME280;59810;48.800;9.086;2022-12-08T00:26:09;97225.56;;;1.50;82.15
71938;BME280;59810;48.800;9.086;2022-12-08T00:28:34;97225.97;;;1.47;83.01
71938;BME280;59810;48.800;9.086;2022-12-08T00:31:07;97215.13;;;1.49;82.53
71938;BME280;59810;48.800;9.086;2022-12-08T00:33:35;97215.31;;;1.41;82.57
71938;BME280;59810;48.800;9.086;2022-12-08T00:36:11;97215.13;;;1.36;82.25
71938;BME280;59810;48.800;9.086;2022-12-08T00:38:37;97210.41;;;1.31;82.41
71938;BME280;59810;48.800;9.086;2022-12-08T00:41:14;97207.50;;;1.19;82.61
71938;BME280;59810;48.800;9.086;2022-12-08T00:43:40;97203.38;;;1.04;83.05
71938;BME280;59810;48.800;9.086;2022-12-08T00:46:09;97212.53;;;0.94;83.83
71938;BME280;59810;48.800;9.086;2022-12-08T00:48:35;97211.91;;;0.92;84.26
71938;BME280;59810;48.800;9.086;2022-12-08T00:51:00;97207.00;;;0.89;83.27
71938;BME280;59810;48.800;9.086;2022-12-08T00:53:26;97213.94;;;0.90;82.94
71938;BME280;59810;48.800;9.086;2022-12-08T00:55:51;97206.97;;;0.83;83.32
71938;BME280;59810;48.800;9.086;2022-12-08T00:58:17;97203.66;;;0.68;84.06
71938;BME280;59810;48.800;9.086;2022-12-08T01:00:42;97209.50;;;0.56;84.95
71938;BME280;59810;48.800;9.086;2022-12-08T01:03:09;97202.97;;;0.52;84.75
71938;BME280;59810;48.800;9.086;2022-12-08T01:05:35;97205.19;;;0.49;84.72
71938;BME280;59810;48.800;9.086;2022-12-08T01:08:00;97204.34;;;0.42;84.80
71938;BME280;59810;48.800;9.086;2022-12-08T01:10:25;97197.59;;;0.39;84.08
71938;BME280;59810;48.800;9.086;2022-12-08T01:12:53;97203.84;;;0.31;84.75
71938;BME280;59810;48.800;9.086;2022-12-08T01:15:18;97204.75;;;0.39;84.14
71938;BME280;59810;48.800;9.086;2022-12-08T01:17:44;97205.75;;;0.38;84.17
71938;BME280;59810;48.800;9.086;2022-12-08T01:20:09;97203.63;;;0.26;85.32
71938;BME280;59810;48.800;9.086;2022-12-08T01:22:38;97205.03;;;0.22;85.78
71938;BME280;59810;48.800;9.086;2022-12-08T01:25:06;97206.84;;;0.15;85.53
71938;BME280;59810;48.800;9.086;2022-12-08T01:27:31;97214.00;;;0.21;85.30
71938;BME280;59810;48.800;9.086;2022-12-08T01:29:57;97216.47;;;0.23;85.02
71938;BME280;59810;48.800;9.086;2022-12-08T01:32:22;97213.41;;;0.19;86.00
71938;BME280;59810;48.800;9.086;2022-12-08T01:34:50;97208.72;;;0.21;85.57
71938;BME280;59810;48.800;9.086;2022-12-08T01:37:18;97212.81;;;0.24;85.45
71938;BME280;59810;48.800;9.086;2022-12-08T01:39:43;97213.22;;;0.27;85.20
71938;BME280;59810;48.800;9.086;2022-12-08T01:42:19;97207.72;;;0.29;84.83
71938;BME280;59810;48.800;9.086;2022-12-08T01:44:51;97206.09;;;0.28;84.54
71938;BME280;59810;48.800;9.086;2022-12-08T01:47:17;97203.63;;;0.26;84.55
71938;BME280;59810;48.800;9.086;2022-12-08T01:49:42;97198.72;;;0.23;84.33
71938;BME280;59810;48.800;9.086;2022-12-08T01:52:23;97203.78;;;0.18;84.32
71938;BME280;59810;48.800;9.086;2022-12-08T01:54:53;97197.63;;;0.11;84.75
71938;BME280;59810;48.800;9.086;2022-12-08T01:57:27;97189.66;;;0.11;84.96
71938;BME280;59810;48.800;9.086;2022-12-08T02:00:00;97189.00;;;0.03;85.70
71938;BME280;59810;48.800;9.086;2022-12-08T02:02:31;97191.19;;;-0.01;85.72
71938;BME280;59810;48.800;9.086;2022-12-08T02:05:01;97186.97;;;0.05;85.64
71938;BME280;59810;48.800;9.086;2022-12-08T02:07:32;97180.78;;;-0.03;85.98
71938;BME280;59810;48.800;9.086;2022-12-08T02:09:57;97179.22;;;0.03;85.60
71938;BME280;59810;48.800;9.086;2022-12-08T02:12:23;97171.09;;;0.11;85.56
71938;BME280;59810;48.800;9.086;2022-12-08T02:14:49;97179.28;;;0.16;85.15
71938;BME280;59810;48.800;9.086;2022-12-08T02:20:17;97158.91;;;0.23;85.40
71938;BME280;59810;48.800;9.086;2022-12-08T02:25:39;97160.56;;;0.31;84.80
71938;BME280;59810;48.800;9.086;2022-12-08T02:31:04;97150.19;;;0.36;84.88
71938;BME280;59810;48.800;9.086;2022-12-08T02:34:16;97138.72;;;0.29;84.94
71938;BME280;59810;48.800;9.086;2022-12-08T02:42:29;97139.59;;;0.43;84.57
71938;BME280;59810;48.800;9.086;2022-12-08T02:45:01;97132.88;;;0.47;84.15
71938;BME280;59810;48.800;9.086;2022-12-08T02:47:29;97127.16;;;0.50;84.02
71938;BME280;59810;48.800;9.086;2022-12-08T02:49:56;97129.81;;;0.50;84.06
71938;BME280;59810;48.800;9.086;2022-12-08T02:55:01;97134.66;;;0.33;83.63
71938;BME280;59810;48.800;9.086;2022-12-08T02:57:35;97132.78;;;0.27;84.30
71938;BME280;59810;48.800;9.086;2022-12-08T03:00:11;97137.09;;;-0.07;84.93
71938;BME280;59810;48.800;9.086;2022-12-08T03:08:26;97139.81;;;0.00;85.01
71938;BME280;59810;48.800;9.086;2022-12-08T03:11:18;97141.88;;;0.05;84.58
71938;BME280;59810;48.800;9.086;2022-12-08T03:13:50;97138.41;;;0.04;84.98
71938;BME280;59810;48.800;9.086;2022-12-08T03:16:20;97132.69;;;0.07;85.05
71938;BME280;59810;48.800;9.086;2022-12-08T03:18:56;97128.66;;;0.18;84.36
71938;BME280;59810;48.800;9.086;2022-12-08T03:21:24;97129.63;;;0.10;84.77
71938;BME280;59810;48.800;9.086;2022-12-08T03:23:52;97122.13;;;0.20;84.42
71938;BME280;59810;48.800;9.086;2022-12-08T03:29:03;97113.94;;;0.15;84.64
71938;BME280;59810;48.800;9.086;2022-12-08T03:31:33;97105.75;;;0.10;84.37
71938;BME280;59810;48.800;9.086;2022-12-08T03:34:03;97100.84;;;0.07;84.76
71938;BME280;59810;48.800;9.086;2022-12-08T03:36:29;97107.38;;;0.05;84.55
71938;BME280;59810;48.800;9.086;2022-12-08T03:38:54;97104.91;;;0.03;83.86
71938;BME280;59810;48.800;9.086;2022-12-08T03:41:21;97104.47;;;-0.01;84.39
71938;BME280;59810;48.800;9.086;2022-12-08T03:43:51;97095.25;;;-0.05;84.51
71938;BME280;59810;48.800;9.086;2022-12-08T03:46:19;97097.09;;;-0.05;83.62
71938;BME280;59810;48.800;9.086;2022-12-08T03:48:46;97093.75;;;-0.20;84.35
71938;BME280;59810;48.800;9.086;2022-12-08T03:51:14;97096.06;;;-0.39;84.35
71938;BME280;59810;48.800;9.086;2022-12-08T03:53:39;97090.63;;;-0.30;84.79
71938;BME280;59810;48.800;9.086;2022-12-08T03:56:14;97086.91;;;-0.36;84.95
71938;BME280;59810;48.800;9.086;2022-12-08T03:58:40;97082.69;;;-0.30;84.53
71938;BME280;59810;48.800;9.086;2022-12-08T04:01:07;97077.19;;;-0.29;83.99
71938;BME280;59810;48.800;9.086;2022-12-08T04:03:33;97080.16;;;-0.39;84.47
71938;BME280;59810;48.800;9.086;2022-12-08T04:06:00;97081.19;;;-0.40;84.70
71938;BME280;59810;48.800;9.086;2022-12-08T04:08:28;97087.50;;;-0.41;84.52
71938;BME280;59810;48.800;9.086;2022-12-08T04:10:53;97075.28;;;-0.35;84.02
71938;BME280;59810;48.800;9.086;2022-12-08T04:13:18;97082.63;;;-0.37;84.37
71938;BME280;59810;48.800;9.086;2022-12-08T04:15:45;97089.72;;;-0.44;85.41
71938;BME280;59810;48.800;9.086;2022-12-08T04:18:11;97082.00;;;-0.39;85.05
71938;BME280;59810;48.800;9.086;2022-12-08T04:20:43;97075.88;;;-0.40;84.92
71938;BME280;59810;48.800;9.086;2022-12-08T04:23:09;97070.97;;;-0.43;84.81
71938;BME280;59810;48.800;9.086;2022-12-08T04:25:38;97068.94;;;-0.41;85.11
71938;BME280;59810;48.800;9.086;2022-12-08T04:28:04;97074.81;;;-0.45;85.48
71938;BME280;59810;48.800;9.086;2022-12-08T04:30:29;97068.28;;;-0.49;85.29
71938;BME280;59810;48.800;9.086;2022-12-08T04:32:55;97073.56;;;-0.49;85.49
71938;BME280;59810;48.800;9.086;2022-12-08T04:35:20;97070.31;;;-0.51;85.40
71938;BME280;59810;48.800;9.086;2022-12-08T04:37:46;97068.84;;;-0.54;84.92
71938;BME280;59810;48.800;9.086;2022-12-08T04:40:12;97063.59;;;-0.47;85.18
71938;BME280;59810;48.800;9.086;2022-12-08T04:42:37;97062.16;;;-0.50;85.22
71938;BME280;59810;48.800;9.086;2022-12-08T04:45:04;97063.63;;;-0.41;84.64
71938;BME280;59810;48.800;9.086;2022-12-08T04:47:29;97059.34;;;-0.42;84.70
71938;BME280;59810;48.800;9.086;2022-12-08T04:49:55;97060.97;;;-0.41;84.29
71938;BME280;59810;48.800;9.086;2022-12-08T04:52:22;97061.38;;;-0.44;84.17
71938;BME280;59810;48.800;9.086;2022-12-08T04:54:48;97057.47;;;-0.48;84.26
71938;BME280;59810;48.800;9.086;2022-12-08T04:57:13;97056.66;;;-0.48;84.59
71938;BME280;59810;48.800;9.086;2022-12-08T04:59:39;97056.41;;;-0.53;84.94
71938;BME280;59810;48.800;9.086;2022-12-08T05:02:04;97053.97;;;-0.55;84.65
71938;BME280;59810;48.800;9.086;2022-12-08T05:04:30;97051.50;;;-0.56;84.96
71938;BME280;59810;48.800;9.086;2022-12-08T05:06:57;97042.94;;;-0.58;85.27
71938;BME280;59810;48.800;9.086;2022-12-08T05:09:23;97043.75;;;-0.58;85.57
71938;BME280;59810;48.800;9.086;2022-12-08T05:11:48;97048.63;;;-0.61;85.58
71938;BME280;59810;48.800;9.086;2022-12-08T05:14:15;97038.44;;;-0.58;85.35
71938;BME280;59810;48.800;9.086;2022-12-08T05:16:42;97034.34;;;-0.60;85.40
71938;BME280;59810;48.800;9.086;2022-12-08T05:19:11;97047.84;;;-0.55;85.14
71938;BME280;59810;48.800;9.086;2022-12-08T05:21:39;97031.94;;;-0.55;85.41
71938;BME280;59810;48.800;9.086;2022-12-08T05:24:07;97035.22;;;-0.53;85.05
71938;BME280;59810;48.800;9.086;2022-12-08T05:26:33;97033.19;;;-0.51;84.75
71938;BME280;59810;48.800;9.086;2022-12-08T05:28:58;97033.78;;;-0.56;85.63
71938;BME280;59810;48.800;9.086;2022-12-08T05:31:23;97031.53;;;-0.52;85.02
71938;BME280;59810;48.800;9.086;2022-12-08T05:33:52;97031.16;;;-0.49;84.78
71938;BME280;59810;48.800;9.086;2022-12-08T05:36:20;97034.47;;;-0.41;85.10
71938;BME280;59810;48.800;9.086;2022-12-08T05:38:45;97036.53;;;-0.36;85.39
71938;BME280;59810;48.800;9.086;2022-12-08T05:41:16;97040.63;;;-0.34;84.92
71938;BME280;59810;48.800;9.086;2022-12-08T05:43:41;97044.75;;;-0.24;83.95
71938;BME280;59810;48.800;9.086;2022-12-08T05:46:10;97038.63;;;-0.32;84.74
71938;BME280;59810;48.800;9.086;2022-12-08T05:48:36;97038.03;;;-0.27;84.70
71938;BME280;59810;48.800;9.086;2022-12-08T05:51:02;97038.03;;;-0.27;84.29
71938;BME280;59810;48.800;9.086;2022-12-08T05:53:27;97042.50;;;-0.27;84.42
71938;BME280;59810;48.800;9.086;2022-12-08T05:55:55;97033.72;;;-0.28;83.49
71938;BME280;59810;48.800;9.086;2022-12-08T05:58:21;97031.69;;;-0.26;83.50
71938;BME280;59810;48.800;9.086;2022-12-08T06:00:48;97032.28;;;-0.30;83.31
71938;BME280;59810;48.800;9.086;2022-12-08T06:03:15;97035.56;;;-0.28;83.67
71938;BME280;59810;48.800;9.086;2022-12-08T06:05:44;97039.97;;;-0.42;83.69
71938;BME280;59810;48.800;9.086;2022-12-08T06:08:10;97026.31;;;-0.39;83.97
71938;BME280;59810;48.800;9.086;2022-12-08T06:10:41;97035.06;;;-0.45;83.87
71938;BME280;59810;48.800;9.086;2022-12-08T06:13:06;97023.63;;;-0.46;84.20
71938;BME280;59810;48.800;9.086;2022-12-08T06:15:36;97023.22;;;-0.43;84.53
71938;BME280;59810;48.800;9.086;2022-12-08T06:18:01;97033.88;;;-0.36;83.94
71938;BME280;59810;48.800;9.086;2022-12-08T06:20:29;97033.31;;;-0.32;84.31
71938;BME280;59810;48.800;9.086;2022-12-08T06:22:55;97028.44;;;-0.28;84.03
71938;BME280;59810;48.800;9.086;2022-12-08T06:25:20;97023.94;;;-0.27;83.57
71938;BME280;59810;48.800;9.086;2022-12-08T06:27:46;97033.06;;;-0.37;83.22
71938;BME280;59810;48.800;9.086;2022-12-08T06:30:14;97029.16;;;-0.41;83.74
71938;BME280;59810;48.800;9.086;2022-12-08T06:32:44;97025.84;;;-0.49;83.72
71938;BME280;59810;48.800;9.086;2022-12-08T06:35:10;97029.94;;;-0.47;83.69
71938;BME280;59810;48.800;9.086;2022-12-08T06:37:35;97024.44;;;-0.45;83.99
71938;BME280;59810;48.800;9.086;2022-12-08T06:40:01;97027.69;;;-0.50;83.96
71938;BME280;59810;48.800;9.086;2022-12-08T06:42:26;97025.63;;;-0.54;83.94
71938;BME280;59810;48.800;9.086;2022-12-08T06:45:14;97034.41;;;-0.54;83.90
71938;BME280;59810;48.800;9.086;2022-12-08T06:47:40;97029.16;;;-0.75;84.68
71938;BME280;59810;48.800;9.086;2022-12-08T06:50:07;97036.44;;;-0.84;84.30
71938;BME280;59810;48.800;9.086;2022-12-08T06:52:32;97044.56;;;-0.85;84.51
71938;BME280;59810;48.800;9.086;2022-12-08T06:54:58;97042.63;;;-0.70;84.26
71938;BME280;59810;48.800;9.086;2022-12-08T06:57:23;97043.59;;;-0.78;84.77
71938;BME280;59810;48.800;9.086;2022-12-08T06:59:49;97042.81;;;-0.72;84.24
71938;BME280;59810;48.800;9.086;2022-12-08T07:02:15;97044.53;;;-0.64;83.96
71938;BME280;59810;48.800;9.086;2022-12-08T07:04:41;97043.75;;;-0.58;84.45
71938;BME280;59810;48.800;9.086;2022-12-08T07:07:09;97042.94;;;-0.58;84.15
71938;BME280;59810;48.800;9.086;2022-12-08T07:09:34;97043.88;;;-0.66;84.19
71938;BME280;59810;48.800;9.086;2022-12-08T07:12:01;97043.84;;;-0.73;84.72
71938;BME280;59810;48.800;9.086;2022-12-08T07:14:27;97044.69;;;-0.66;84.29
71938;BME280;59810;48.800;9.086;2022-12-08T07:16:52;97041.69;;;-0.63;83.43
71938;BME280;59810;48.800;9.086;2022-12-08T07:19:18;97046.50;;;-0.73;84.47
71938;BME280;59810;48.800;9.086;2022-12-08T07:21:43;97039.84;;;-0.62;83.33
71938;BME280;59810;48.800;9.086;2022-12-08T07:24:09;97047.81;;;-0.62;83.74
71938;BME280;59810;48.800;9.086;2022-12-08T07:26:35;97040.47;;;-0.60;83.17
71938;BME280;59810;48.800;9.086;2022-12-08T07:29:01;97046.41;;;-0.58;83.76
71938;BME280;59810;48.800;9.086;2022-12-08T07:31:26;97046.63;;;-0.53;83.05
71938;BME280;59810;48.800;9.086;2022-12-08T07:33:53;97051.50;;;-0.56;83.63
71938;BME280;59810;48.800;9.086;2022-12-08T07:36:19;97052.31;;;-0.56;83.96
71938;BME280;59810;48.800;9.086;2022-12-08T07:38:45;97051.91;;;0.23;95.96
71938;BME280;59810;48.800;9.086;2022-12-08T07:41:15;97049.19;;;0.77;96.86
71938;BME280;59810;48.800;9.086;2022-12-08T07:43:41;97052.69;;;1.37;98.32
71938;BME280;59810;48.800;9.086;2022-12-08T07:46:06;97040.69;;;1.99;99.40
71938;BME280;59810;48.800;9.086;2022-12-08T07:48:32;97041.94;;;2.41;97.73
71938;BME280;59810;48.800;9.086;2022-12-08T07:51:02;97041.41;;;1.68;86.69
71938;BME280;59810;48.800;9.086;2022-12-08T07:53:27;97039.56;;;1.55;83.86
71938;BME280;59810;48.800;9.086;2022-12-08T07:55:53;97038.59;;;1.30;85.02
71938;BME280;59810;48.800;9.086;2022-12-08T07:58:18;97030.59;;;0.84;80.85
71938;BME280;59810;48.800;9.086;2022-12-08T08:00:43;97039.72;;;0.42;81.27
71938;BME280;59810;48.800;9.086;2022-12-08T08:03:10;97039.44;;;0.23;81.75
71938;BME280;59810;48.800;9.086;2022-12-08T08:05:38;97032.25;;;0.04;82.00
71938;BME280;59810;48.800;9.086;2022-12-08T08:08:04;97035.44;;;-0.07;83.12
71938;BME280;59810;48.800;9.086;2022-12-08T08:10:29;97031.44;;;0.04;83.49
71938;BME280;59810;48.800;9.086;2022-12-08T08:12:57;97027.13;;;0.03;83.19
71938;BME280;59810;48.800;9.086;2022-12-08T08:15:23;97019.09;;;-0.11;83.75
71938;BME280;59810;48.800;9.086;2022-12-08T08:17:49;97025.22;;;-0.10;83.22
71938;BME280;59810;48.800;9.086;2022-12-08T08:20:15;97024.22;;;-0.09;83.56
71938;BME280;59810;48.800;9.086;2022-12-08T08:22:45;97024.84;;;-0.07;83.43
71938;BME280;59810;48.800;9.086;2022-12-08T08:25:11;97021.75;;;-0.11;83.09
71938;BME280;59810;48.800;9.086;2022-12-08T08:27:37;97031.34;;;-0.16;84.02
71938;BME280;59810;48.800;9.086;2022-12-08T08:30:03;97022.56;;;-0.17;84.42
71938;BME280;59810;48.800;9.086;2022-12-08T08:32:32;97027.72;;;-0.02;83.91
71938;BME280;59810;48.800;9.086;2022-12-08T08:34:58;97029.13;;;-0.06;83.73
71938;BME280;59810;48.800;9.086;2022-12-08T08:37:23;97029.78;;;0.03;83.68
71938;BME280;59810;48.800;9.086;2022-12-08T08:39:48;97031.44;;;0.04;83.63
71938;BME280;59810;48.800;9.086;2022-12-08T08:42:13;97026.94;;;0.04;83.25
71938;BME280;59810;48.800;9.086;2022-12-08T08:44:41;97026.53;;;0.07;83.46
71938;BME280;59810;48.800;9.086;2022-12-08T08:47:06;97020.97;;;1.36;95.78
71938;BME280;59810;48.800;9.086;2022-12-08T08:49:31;97022.00;;;2.50;88.82
71938;BME280;59810;48.800;9.086;2022-12-08T08:51:57;97014.00;;;2.12;83.03
71938;BME280;59810;48.800;9.086;2022-12-08T08:54:22;97020.56;;;1.39;78.19
71938;BME280;59810;48.800;9.086;2022-12-08T08:56:47;97019.78;;;1.32;78.73
71938;BME280;59810;48.800;9.086;2022-12-08T08:59:13;97022.41;;;1.38;79.78
71938;BME280;59810;48.800;9.086;2022-12-08T09:01:38;97021.19;;;1.28;79.02
71938;BME280;59810;48.800;9.086;2022-12-08T09:04:04;97008.91;;;1.20;79.50
71938;BME280;59810;48.800;9.086;2022-12-08T09:06:29;97010.97;;;0.91;79.97
71938;BME280;59810;48.800;9.086;2022-12-08T09:08:55;97009.94;;;0.86;80.55
71938;BME280;59810;48.800;9.086;2022-12-08T09:11:20;97016.91;;;0.74;80.15
71938;BME280;59810;48.800;9.086;2022-12-08T09:13:48;97013.84;;;0.70;81.57
71938;BME280;59810;48.800;9.086;2022-12-08T09:16:14;97005.47;;;0.80;81.27
71938;BME280;59810;48.800;9.086;2022-12-08T09:18:39;97007.91;;;0.81;81.61
71938;BME280;59810;48.800;9.086;2022-12-08T09:21:06;97005.88;;;0.83;81.46
71938;BME280;59810;48.800;9.086;2022-12-08T09:23:33;97002.19;;;0.84;81.30
71938;BME280;59810;48.800;9.086;2022-12-08T09:25:58;96998.09;;;0.88;81.12
71938;BME280;59810;48.800;9.086;2022-12-08T09:28:24;97002.38;;;0.89;81.40
71938;BME280;59810;48.800;9.086;2022-12-08T09:30:51;97003.59;;;0.93;81.62
71938;BME280;59810;48.800;9.086;2022-12-08T09:33:17;97002.19;;;0.98;81.53
71938;BME280;59810;48.800;9.086;2022-12-08T09:35:42;97004.00;;;0.97;81.64
71938;BME280;59810;48.800;9.086;2022-12-08T09:38:10;96997.72;;;0.98;81.73
71938;BME280;59810;48.800;9.086;2022-12-08T09:40:48;97002.00;;;0.99;81.55
71938;BME280;59810;48.800;9.086;2022-12-08T09:46:08;96994.41;;;1.16;81.26
71938;BME280;59810;48.800;9.086;2022-12-08T09:48:40;96990.50;;;1.25;81.10
71938;BME280;59810;48.800;9.086;2022-12-08T09:51:07;96984.16;;;1.39;80.49
71938;BME280;59810;48.800;9.086;2022-12-08T09:53:52;96988.63;;;1.45;80.06
71938;BME280;59810;48.800;9.086;2022-12-08T09:56:21;96989.81;;;1.56;79.74
71938;BME280;59810;48.800;9.086;2022-12-08T09:59:00;96986.97;;;1.64;79.06
71938;BME280;59810;48.800;9.086;2022-12-08T10:01:28;96987.13;;;1.76;77.89
71938;BME280;59810;48.800;9.086;2022-12-08T10:03:55;96986.25;;;1.88;78.13
71938;BME280;59810;48.800;9.086;2022-12-08T10:11:59;96974.00;;;2.26;77.49
71938;BME280;59810;48.800;9.086;2022-12-08T10:16:56;96964.97;;;2.58;76.82
71938;BME280;59810;48.800;9.086;2022-12-08T10:19:26;96961.97;;;2.79;74.55
71938;BME280;59810;48.800;9.086;2022-12-08T10:21:53;96963.81;;;3.04;75.39
71938;BME280;59810;48.800;9.086;2022-12-08T10:26:51;96959.06;;;3.31;72.52
71938;BME280;59810;48.800;9.086;2022-12-08T10:29:17;96956.84;;;3.46;71.01
71938;BME280;59810;48.800;9.086;2022-12-08T10:31:43;96955.69;;;3.60;70.70
71938;BME280;59810;48.800;9.086;2022-12-08T10:34:20;96951.06;;;3.67;70.68
71938;BME280;59810;48.800;9.086;2022-12-08T10:36:50;96950.41;;;3.72;70.12
71938;BME280;59810;48.800;9.086;2022-12-08T10:39:31;96952.47;;;3.88;70.41
71938;BME280;59810;48.800;9.086;2022-12-08T10:44:32;96946.25;;;3.94;69.87
71938;BME280;59810;48.800;9.086;2022-12-08T10:47:11;96941.16;;;4.04;70.89
71938;BME280;59810;48.800;9.086;2022-12-08T10:49:39;96946.31;;;4.18;69.59
71938;BME280;59810;48.800;9.086;2022-12-08T10:52:23;96937.63;;;4.22;68.79
71938;BME280;59810;48.800;9.086;2022-12-08T10:54:52;96931.41;;;4.28;67.73
71938;BME280;59810;48.800;9.086;2022-12-08T10:57:21;96933.63;;;4.31;67.10
71938;BME280;59810;48.800;9.086;2022-12-08T10:59:48;96926.41;;;4.32;66.14
71938;BME280;59810;48.800;9.086;2022-12-08T11:02:20;96920.16;;;4.38;66.46
71938;BME280;59810;48.800;9.086;2022-12-08T11:04:46;96915.03;;;4.36;66.66
71938;BME280;59810;48.800;9.086;2022-12-08T11:07:19;96911.91;;;4.40;68.20
71938;BME280;59810;48.800;9.086;2022-12-08T11:09:48;96912.41;;;4.48;68.25
71938;BME280;59810;48.800;9.086;2022-12-08T11:12:20;96908.72;;;4.61;68.02
71938;BME280;59810;48.800;9.086;2022-12-08T11:14:49;96903.72;;;4.64;66.88
71938;BME280;59810;48.800;9.086;2022-12-08T11:17:22;96896.16;;;4.61;67.38
71938;BME280;59810;48.800;9.086;2022-12-08T11:19:56;96891.50;;;4.57;65.63
71938;BME280;59810;48.800;9.086;2022-12-08T11:22:36;96889.66;;;4.57;66.46
71938;BME280;59810;48.800;9.086;2022-12-08T11:27:42;96892.75;;;4.54;65.79
71938;BME280;59810;48.800;9.086;2022-12-08T11:30:14;96883.81;;;4.49;65.33
71938;BME280;59810;48.800;9.086;2022-12-08T11:32:44;96881.63;;;4.57;65.97
71938;BME280;59810;48.800;9.086;2022-12-08T11:35:37;96875.25;;;4.58;65.07
71938;BME280;59810;48.800;9.086;2022-12-08T11:38:09;96877.00;;;4.64;65.26
71938;BME280;59810;48.800;9.086;2022-12-08T11:40:38;96873.75;;;4.62;65.52
71938;BME280;59810;48.800;9.086;2022-12-08T11:45:41;96874.66;;;4.56;66.85
71938;BME280;59810;48.800;9.086;2022-12-08T11:48:17;96879.28;;;4.49;65.56
71938;BME280;59810;48.800;9.086;2022-12-08T11:50:50;96867.22;;;4.58;65.89
71938;BME280;59810;48.800;9.086;2022-12-08T11:53:25;96869.31;;;4.56;65.93
71938;BME280;59810;48.800;9.086;2022-12-08T11:55:56;96873.69;;;4.39;65.82
71938;BME280;59810;48.800;9.086;2022-12-08T11:58:35;96875.56;;;4.50;65.88
71938;BME280;59810;48.800;9.086;2022-12-08T12:01:04;96874.50;;;4.40;66.27
71938;BME280;59810;48.800;9.086;2022-12-08T12:03:39;96862.06;;;4.45;66.82
71938;BME280;59810;48.800;9.086;2022-12-08T12:08:59;96868.69;;;4.43;65.46
71938;BME280;59810;48.800;9.086;2022-12-08T12:20:20;96850.56;;;4.45;65.35
71938;BME280;59810;48.800;9.086;2022-12-08T12:22:52;96852.66;;;4.43;65.23
71938;BME280;59810;48.800;9.086;2022-12-08T12:25:23;96847.91;;;4.45;65.36
71938;BME280;59810;48.800;9.086;2022-12-08T12:27:50;96848.00;;;4.50;65.50
71938;BME280;59810;48.800;9.086;2022-12-08T12:30:23;96848.38;;;4.53;64.95
71938;BME280;59810;48.800;9.086;2022-12-08T12:32:55;96852.31;;;4.39;64.27
71938;BME280;59810;48.800;9.086;2022-12-08T12:37:57;96834.41;;;4.40;66.07
71938;BME280;59810;48.800;9.086;2022-12-08T12:40:26;96838.72;;;4.41;65.46
71938;BME280;59810;48.800;9.086;2022-12-08T12:45:26;96840.91;;;4.32;65.37
71938;BME280;59810;48.800;9.086;2022-12-08T12:53:03;96827.09;;;4.47;65.55
71938;BME280;59810;48.800;9.086;2022-12-08T12:58:35;96817.91;;;4.54;64.88
71938;BME280;59810;48.800;9.086;2022-12-08T13:03:42;96819.22;;;4.63;64.94
71938;BME280;59810;48.800;9.086;2022-12-08T13:06:09;96817.13;;;4.65;64.83
71938;BME280;59810;48.800;9.086;2022-12-08T13:08:40;96813.53;;;4.72;65.17
71938;BME280;59810;48.800;9.086;2022-12-08T13:11:13;96817.94;;;4.66;65.02
71938;BME280;59810;48.800;9.086;2022-12-08T13:14:00;96813.66;;;4.65;66.24
71938;BME280;59810;48.800;9.086;2022-12-08T13:16:31;96814.22;;;4.55;64.26
71938;BME280;59810;48.800;9.086;2022-12-08T13:18:59;96815.16;;;4.61;65.38
71938;BME280;59810;48.800;9.086;2022-12-08T13:21:34;96815.84;;;4.56;66.05
71938;BME280;59810;48.800;9.086;2022-12-08T13:29:29;96817.09;;;4.54;65.54
71938;BME280;59810;48.800;9.086;2022-12-08T13:31:59;96815.94;;;4.50;65.76
71938;BME280;59810;48.800;9.086;2022-12-08T13:34:33;96818.38;;;4.51;65.30
71938;BME280;59810;48.800;9.086;2022-12-08T13:37:03;96812.56;;;4.54;67.67
71938;BME280;59810;48.800;9.086;2022-12-08T13:42:12;96811.28;;;4.45;65.44
71938;BME280;59810;48.800;9.086;2022-12-08T13:44:50;96819.66;;;4.49;66.50
71938;BME280;59810;48.800;9.086;2022-12-08T13:47:21;96815.03;;;4.56;66.61
71938;BME280;59810;48.800;9.086;2022-12-08T13:50:00;96810.50;;;4.56;66.17
71938;BME280;59810;48.800;9.086;2022-12-08T13:52:36;96809.91;;;4.43;66.38
71938;BME280;59810;48.800;9.086;2022-12-08T13:55:03;96795.94;;;4.52;66.29
71938;BME280;59810;48.800;9.086;2022-12-08T13:57:33;96798.63;;;4.52;65.72
71938;BME280;59810;48.800;9.086;2022-12-08T14:00:03;96804.91;;;4.46;65.85
71938;BME280;59810;48.800;9.086;2022-12-08T14:02:33;96808.63;;;4.45;65.74
71938;BME280;59810;48.800;9.086;2022-12-08T14:05:03;96807.00;;;4.44;65.15
71938;BME280;59810;48.800;9.086;2022-12-08T14:07:30;96800.84;;;4.44;65.13
71938;BME280;59810;48.800;9.086;2022-12-08T14:10:00;96804.78;;;4.41;65.46
71938;BME280;59810;48.800;9.086;2022-12-08T14:12:29;96804.22;;;4.39;65.58
71938;BME280;59810;48.800;9.086;2022-12-08T14:15:05;96803.97;;;4.29;66.92
71938;BME280;59810;48.800;9.086;2022-12-08T14:17:32;96810.94;;;4.30;65.72
71938;BME280;59810;48.800;9.086;2022-12-08T14:20:13;96811.75;;;4.30;66.16
71938;BME280;59810;48.800;9.086;2022-12-08T14:22:47;96815.47;;;4.29;65.84
71938;BME280;59810;48.800;9.086;2022-12-08T14:25:15;96806.53;;;4.24;65.69
71938;BME280;59810;48.800;9.086;2022-12-08T14:27:44;96807.34;;;4.24;66.44
71938;BME280;59810;48.800;9.086;2022-12-08T14:32:43;96806.38;;;4.19;66.42
71938;BME280;59810;48.800;9.086;2022-12-08T14:37:37;96803.56;;;4.14;66.56
71938;BME280;59810;48.800;9.086;2022-12-08T14:40:31;96816.34;;;4.12;66.79
71938;BME280;59810;48.800;9.086;2022-12-08T14:51:06;96806.72;;;4.11;68.88